createdAt,value
2023-03-27T00:01:24.109Z,3.70
2023-03-27T00:03:51.885Z,3.70
2023-03-27T00:06:20.412Z,3.72
2023-03-27T00:08:49.306Z,3.71
2023-03-27T00:11:17.062Z,3.66
2023-03-27T00:13:50.369Z,3.67
2023-03-27T00:16:22.888Z,3.68
2023-03-27T00:18:49.662Z,3.65
2023-03-27T00:21:16.681Z,3.63
2023-03-27T00:23:43.675Z,3.66
2023-03-27T00:26:12.136Z,3.61
2023-03-27T00:28:39.321Z,3.57
2023-03-27T00:31:11.734Z,3.57
2023-03-27T00:33:38.827Z,3.51
2023-03-27T00:36:06.329Z,3.46
2023-03-27T00:38:34.246Z,3.50
2023-03-27T00:41:01.485Z,3.44
2023-03-27T00:43:36.044Z,3.42
2023-03-27T00:46:31.792Z,3.41
2023-03-27T00:49:03.994Z,3.38
2023-03-27T00:51:32.133Z,3.39
2023-03-27T00:54:00.036Z,3.38
2023-03-27T00:56:27.069Z,3.47
2023-03-27T00:59:02.254Z,3.48
2023-03-27T01:01:31.453Z,3.51
2023-03-27T01:04:04.482Z,3.51
2023-03-27T01:06:32.049Z,3.50
2023-03-27T01:08:58.945Z,3.49
2023-03-27T01:11:51.722Z,3.53
2023-03-27T01:14:26.699Z,3.52
2023-03-27T01:17:26.052Z,3.52
2023-03-27T01:20:21.050Z,3.53
2023-03-27T01:23:13.742Z,3.49
2023-03-27T01:26:02.179Z,3.48
2023-03-27T01:28:37.394Z,3.48
2023-03-27T01:31:25.816Z,3.47
2023-03-27T01:34:07.432Z,3.50
2023-03-27T01:37:06.555Z,3.49
2023-03-27T01:40:05.061Z,3.44
2023-03-27T01:42:36.934Z,3.49
2023-03-27T01:45:16.320Z,3.48
2023-03-27T01:48:04.890Z,3.50
2023-03-27T01:50:45.304Z,3.53
2023-03-27T01:53:17.978Z,3.61
2023-03-27T01:55:50.431Z,3.89
2023-03-27T01:58:22.640Z,4.14
2023-03-27T02:00:55.485Z,4.41
2023-03-27T02:03:34.956Z,4.57
2023-03-27T02:06:17.770Z,4.83
2023-03-27T02:08:55.644Z,4.99
2023-03-27T02:11:30.039Z,5.12
2023-03-27T02:14:02.670Z,5.21
2023-03-27T02:16:34.169Z,5.17
2023-03-27T02:19:20.317Z,5.24
2023-03-27T02:21:50.060Z,5.20
2023-03-27T02:24:18.858Z,5.20
2023-03-27T02:26:50.549Z,5.23
2023-03-27T02:29:35.791Z,5.31
2023-03-27T02:32:33.710Z,5.47
2023-03-27T02:35:20.227Z,5.65
2023-03-27T02:37:56.464Z,5.78
2023-03-27T02:40:39.856Z,5.92
2023-03-27T02:43:07.353Z,6.02
2023-03-27T02:46:00.836Z,6.12
2023-03-27T02:48:31.898Z,6.19
2023-03-27T02:51:14.256Z,6.29
2023-03-27T02:53:52.454Z,6.38
2023-03-27T02:56:24.059Z,6.45
2023-03-27T02:58:57.701Z,6.48
2023-03-27T03:01:26.862Z,6.60
2023-03-27T03:04:01.080Z,6.62
2023-03-27T03:06:30.553Z,6.70
2023-03-27T03:09:06.447Z,6.70
2023-03-27T03:11:39.460Z,6.78
2023-03-27T03:14:06.141Z,6.85
2023-03-27T03:16:33.642Z,6.89
2023-03-27T03:19:00.374Z,6.97
2023-03-27T03:21:26.975Z,7.03
2023-03-27T03:23:58.706Z,7.04
2023-03-27T03:26:27.143Z,7.10
2023-03-27T03:29:00.934Z,7.10
2023-03-27T03:31:43.261Z,7.15
2023-03-27T03:34:16.399Z,7.23
2023-03-27T03:36:45.105Z,7.22
2023-03-27T03:39:12.772Z,7.21
2023-03-27T03:41:39.675Z,7.19
2023-03-27T03:44:06.587Z,7.16
2023-03-27T03:46:33.373Z,7.11
2023-03-27T03:49:00.744Z,7.10
2023-03-27T03:51:28.687Z,7.04
2023-03-27T03:53:55.383Z,7.05
2023-03-27T03:56:22.469Z,6.97
2023-03-27T03:58:49.456Z,6.95
2023-03-27T04:01:20.733Z,6.91
2023-03-27T04:03:48.214Z,6.93
2023-03-27T04:06:20.543Z,6.87
2023-03-27T04:08:47.828Z,6.82
2023-03-27T04:11:14.496Z,6.80
2023-03-27T04:13:41.557Z,6.71
2023-03-27T04:16:08.530Z,6.69
2023-03-27T04:18:35.667Z,6.60
2023-03-27T04:21:03.232Z,6.65
2023-03-27T04:23:33.422Z,6.64
2023-03-27T04:26:02.076Z,6.75
2023-03-27T04:28:34.578Z,6.82
2023-03-27T04:31:06.506Z,6.92
2023-03-27T04:33:34.753Z,6.98
2023-03-27T04:36:06.043Z,6.97
2023-03-27T04:38:38.179Z,6.97
2023-03-27T04:41:06.240Z,6.95
2023-03-27T04:43:36.614Z,7.01
2023-03-27T04:46:06.576Z,7.06
2023-03-27T04:48:33.920Z,7.04
2023-03-27T04:51:00.626Z,7.09
2023-03-27T04:53:30.387Z,7.09
2023-03-27T04:55:57.513Z,7.10
2023-03-27T04:58:25.871Z,7.02
2023-03-27T05:00:55.674Z,7.14
2023-03-27T05:03:27.955Z,7.13
2023-03-27T05:05:55.016Z,7.12
2023-03-27T05:08:21.960Z,7.15
2023-03-27T05:10:48.963Z,7.10
2023-03-27T05:13:16.012Z,7.13
2023-03-27T05:15:43.271Z,7.14
2023-03-27T05:18:09.990Z,7.15
2023-03-27T05:20:37.340Z,7.21
2023-03-27T05:23:04.383Z,7.21
2023-03-27T05:25:32.552Z,7.27
2023-03-27T05:28:00.646Z,7.31
2023-03-27T05:30:28.615Z,7.35
2023-03-27T05:32:59.576Z,7.35
2023-03-27T05:35:28.587Z,7.37
2023-03-27T05:37:56.305Z,7.46
2023-03-27T05:40:26.074Z,7.46
2023-03-27T05:42:54.041Z,7.52
2023-03-27T05:45:22.093Z,7.58
2023-03-27T05:47:57.108Z,7.57
2023-03-27T05:50:28.394Z,7.63
2023-03-27T05:53:00.894Z,7.68
2023-03-27T05:55:28.356Z,7.72
2023-03-27T05:57:55.160Z,7.76
2023-03-27T06:00:26.017Z,7.81
2023-03-27T06:03:01.191Z,7.83
2023-03-27T06:05:30.414Z,7.87
2023-03-27T06:07:59.089Z,7.95
2023-03-27T06:10:30.181Z,7.96
2023-03-27T06:13:06.591Z,8.02
2023-03-27T06:15:34.339Z,8.02
2023-03-27T06:18:01.221Z,8.08
2023-03-27T06:20:28.369Z,8.13
2023-03-27T06:22:57.522Z,8.19
2023-03-27T06:25:25.787Z,8.21
2023-03-27T06:27:53.612Z,8.27
2023-03-27T06:30:23.566Z,8.38
2023-03-27T06:32:52.961Z,8.46
2023-03-27T06:35:20.847Z,8.55
2023-03-27T06:37:51.424Z,8.62
2023-03-27T06:40:24.370Z,8.72
2023-03-27T06:43:00.128Z,8.79
2023-03-27T06:45:33.890Z,8.88
2023-03-27T06:48:16.056Z,8.94
2023-03-27T06:50:51.111Z,9.01
2023-03-27T06:53:27.083Z,9.05
2023-03-27T06:55:54.790Z,9.11
2023-03-27T06:58:21.917Z,9.14
2023-03-27T07:00:50.370Z,9.21
2023-03-27T07:03:19.631Z,9.24
2023-03-27T07:05:46.752Z,9.19
2023-03-27T07:10:56.736Z,9.33
2023-03-27T07:13:27.504Z,9.34
2023-03-27T07:15:55.250Z,9.39
2023-03-27T07:18:22.794Z,9.47
2023-03-27T07:20:50.432Z,9.48
2023-03-27T07:23:18.027Z,9.51
2023-03-27T07:25:44.614Z,9.49
2023-03-27T07:28:16.664Z,9.50
2023-03-27T07:30:43.476Z,9.42
2023-03-27T07:33:10.608Z,9.36
2023-03-27T07:35:45.492Z,9.34
2023-03-27T07:38:12.841Z,9.28
2023-03-27T07:40:40.804Z,9.20
2023-03-27T07:43:08.228Z,9.13
2023-03-27T07:45:35.963Z,9.05
2023-03-27T07:48:17.275Z,8.97
2023-03-27T07:50:45.253Z,8.89
2023-03-27T07:53:33.491Z,8.89
2023-03-27T07:55:59.445Z,8.81
2023-03-27T07:58:26.255Z,8.81
2023-03-27T08:00:53.327Z,8.87
2023-03-27T08:03:26.287Z,8.86
2023-03-27T08:05:55.986Z,8.83
2023-03-27T08:08:23.357Z,8.81
2023-03-27T08:10:52.107Z,8.77
2023-03-27T08:13:19.142Z,8.73
2023-03-27T08:15:45.763Z,8.78
2023-03-27T08:18:13.029Z,8.72
2023-03-27T08:20:39.798Z,8.77
2023-03-27T08:23:06.646Z,8.90
2023-03-27T08:25:34.135Z,9.05
2023-03-27T08:28:02.701Z,9.13
2023-03-27T08:30:29.849Z,9.18
2023-03-27T08:32:57.164Z,9.33
2023-03-27T08:35:23.870Z,9.36
2023-03-27T08:37:50.640Z,9.48
2023-03-27T08:40:21.721Z,9.53
2023-03-27T08:42:52.613Z,9.61
2023-03-27T08:45:40.702Z,9.69
2023-03-27T08:48:16.414Z,9.79
2023-03-27T08:50:57.028Z,9.85
2023-03-27T08:53:23.596Z,9.93
2023-03-27T08:55:50.300Z,9.97
2023-03-27T08:58:20.112Z,10.07
2023-03-27T09:00:57.510Z,10.12
2023-03-27T09:03:29.991Z,10.13
2023-03-27T09:06:00.467Z,10.21
2023-03-27T09:08:43.590Z,10.23
2023-03-27T09:11:27.942Z,10.25
2023-03-27T09:13:55.051Z,10.27
2023-03-27T09:16:30.778Z,10.31
2023-03-27T09:19:15.874Z,10.35
2023-03-27T09:21:57.929Z,10.40
2023-03-27T09:24:36.890Z,10.40
2023-03-27T09:27:23.812Z,10.48
2023-03-27T09:30:18.843Z,10.51
2023-03-27T09:32:52.675Z,10.54
2023-03-27T09:35:21.144Z,10.57
2023-03-27T09:37:54.176Z,10.58
2023-03-27T09:40:38.349Z,10.65
2023-03-27T09:43:09.591Z,10.67
2023-03-27T09:45:39.284Z,10.73
2023-03-27T09:48:14.265Z,10.75
2023-03-27T09:50:47.394Z,10.77
2023-03-27T09:53:18.363Z,10.79
2023-03-27T09:56:14.446Z,10.83
2023-03-27T09:58:44.650Z,10.85
2023-03-27T10:01:34.630Z,10.88
2023-03-27T10:04:08.727Z,10.93
2023-03-27T10:06:47.460Z,10.96
2023-03-27T10:09:32.508Z,11.00
2023-03-27T10:12:03.298Z,11.04
2023-03-27T10:14:30.897Z,11.09
2023-03-27T10:16:58.270Z,11.13
2023-03-27T10:19:29.516Z,11.20
2023-03-27T10:22:00.181Z,11.25
2023-03-27T10:24:33.898Z,11.33
2023-03-27T10:27:05.103Z,11.40
2023-03-27T10:29:35.599Z,11.45
2023-03-27T10:32:04.394Z,11.48
2023-03-27T10:34:37.819Z,11.51
2023-03-27T10:37:19.573Z,11.57
2023-03-27T10:39:56.106Z,11.58
2023-03-27T10:42:31.653Z,11.59
2023-03-27T10:44:59.707Z,11.59
2023-03-27T10:47:34.463Z,11.61
2023-03-27T10:50:23.025Z,11.63
2023-03-27T10:52:52.992Z,11.65
2023-03-27T10:55:44.884Z,11.67
2023-03-27T10:58:24.428Z,11.69
2023-03-27T11:01:15.226Z,11.72
2023-03-27T11:03:53.580Z,11.76
2023-03-27T11:06:23.236Z,11.82
2023-03-27T11:08:53.875Z,11.87
2023-03-27T11:11:28.444Z,11.85
2023-03-27T11:14:02.329Z,11.93
2023-03-27T11:16:35.614Z,11.98
2023-03-27T11:19:11.635Z,12.03
2023-03-27T11:21:50.694Z,12.06
2023-03-27T11:24:29.863Z,12.18
2023-03-27T11:27:21.285Z,12.30
2023-03-27T11:30:04.789Z,12.46
2023-03-27T11:32:43.517Z,12.61
2023-03-27T11:35:36.521Z,12.80
2023-03-27T11:38:12.728Z,12.92
2023-03-27T11:40:44.976Z,13.10
2023-03-27T11:43:17.067Z,13.20
2023-03-27T11:46:09.967Z,13.35
2023-03-27T11:48:52.323Z,13.47
2023-03-27T11:51:24.914Z,13.53
2023-03-27T11:54:19.853Z,13.56
2023-03-27T11:56:55.539Z,13.59
2023-03-27T11:59:31.173Z,13.62
2023-03-27T12:02:24.490Z,13.62
2023-03-27T12:04:54.693Z,13.72
2023-03-27T12:07:35.324Z,13.75
2023-03-27T12:10:32.754Z,13.84
2023-03-27T12:13:24.299Z,13.88
2023-03-27T12:16:20.345Z,13.94
2023-03-27T12:19:21.209Z,14.01
2023-03-27T12:22:24.443Z,14.06
2023-03-27T12:25:15.913Z,14.13
2023-03-27T12:28:07.433Z,14.19
2023-03-27T12:31:01.053Z,14.25
2023-03-27T12:33:29.723Z,14.30
2023-03-27T12:36:01.180Z,14.36
2023-03-27T12:38:43.070Z,14.28
2023-03-27T12:41:13.766Z,14.42
2023-03-27T12:43:46.315Z,14.43
2023-03-27T12:46:26.474Z,14.47
2023-03-27T12:49:13.845Z,14.47
2023-03-27T12:52:05.260Z,14.56
2023-03-27T12:54:38.961Z,14.62
2023-03-27T12:57:25.118Z,14.63
2023-03-27T12:59:57.916Z,14.62
2023-03-27T13:02:52.657Z,14.70
2023-03-27T13:05:27.351Z,14.69
2023-03-27T13:08:03.888Z,14.74
2023-03-27T13:10:49.425Z,14.74
2023-03-27T13:13:40.590Z,14.68
2023-03-27T13:16:23.255Z,14.61
2023-03-27T13:19:20.214Z,14.62
2023-03-27T13:22:12.109Z,14.57
2023-03-27T13:25:04.383Z,14.54
2023-03-27T13:28:19.085Z,14.46
2023-03-27T13:30:55.744Z,14.42
2023-03-27T13:33:31.770Z,14.40
2023-03-27T13:35:58.789Z,14.40
2023-03-27T13:38:49.439Z,14.40
2023-03-27T13:41:43.924Z,14.42
2023-03-27T13:44:16.678Z,14.45
2023-03-27T13:46:50.041Z,14.43
2023-03-27T13:49:32.601Z,14.45
2023-03-27T13:52:27.659Z,14.43
2023-03-27T13:55:17.457Z,14.32
2023-03-27T13:58:05.502Z,14.17
2023-03-27T14:01:07.991Z,14.10
2023-03-27T14:03:41.088Z,14.04
2023-03-27T14:06:14.405Z,13.89
2023-03-27T14:08:54.323Z,13.86
2023-03-27T14:11:46.074Z,13.76
2023-03-27T14:14:46.318Z,13.62
2023-03-27T14:17:24.314Z,13.49
2023-03-27T14:20:19.151Z,13.36
2023-03-27T14:22:53.546Z,13.31
2023-03-27T14:25:30.436Z,13.24
2023-03-27T14:27:57.433Z,13.17
2023-03-27T14:30:26.885Z,13.12
2023-03-27T14:32:56.765Z,12.99
2023-03-27T14:35:33.325Z,12.99
2023-03-27T14:38:01.971Z,12.90
2023-03-27T14:40:48.550Z,12.85
2023-03-27T14:43:17.559Z,12.80
2023-03-27T14:45:44.977Z,12.76
2023-03-27T14:48:26.163Z,12.76
2023-03-27T14:50:55.531Z,12.74
2023-03-27T14:53:29.716Z,12.68
2023-03-27T14:56:00.424Z,12.64
2023-03-27T14:58:27.797Z,12.62
2023-03-27T15:00:59.546Z,12.63
2023-03-27T15:03:30.979Z,12.55
2023-03-27T15:06:06.024Z,12.57
2023-03-27T15:08:39.643Z,12.52
2023-03-27T15:11:11.495Z,12.54
2023-03-27T15:13:38.243Z,12.57
2023-03-27T15:16:08.115Z,12.55
2023-03-27T15:18:49.662Z,12.54
2023-03-27T15:21:49.392Z,12.49
2023-03-27T15:24:23.307Z,12.48
2023-03-27T15:26:52.039Z,12.46
2023-03-27T15:29:32.632Z,12.47
2023-03-27T15:32:01.479Z,12.32
2023-03-27T15:34:34.554Z,12.41
2023-03-27T15:37:05.797Z,12.38
2023-03-27T15:39:34.402Z,12.29
2023-03-27T15:42:14.100Z,12.32
2023-03-27T15:44:42.867Z,12.29
2023-03-27T15:47:25.499Z,12.26
2023-03-27T15:50:22.559Z,12.22
2023-03-27T15:52:55.133Z,12.09
2023-03-27T15:55:42.445Z,12.06
2023-03-27T15:58:27.385Z,12.04
2023-03-27T16:01:00.108Z,12.06
2023-03-27T16:03:29.986Z,12.09
2023-03-27T16:05:58.675Z,12.10
2023-03-27T16:08:36.917Z,12.10
2023-03-27T16:11:06.359Z,12.13
2023-03-27T16:13:42.155Z,12.11
2023-03-27T16:16:34.032Z,12.07
2023-03-27T16:19:11.475Z,12.07
2023-03-27T16:21:38.142Z,12.03
2023-03-27T16:24:04.990Z,11.97
2023-03-27T16:26:32.505Z,11.93
2023-03-27T16:29:04.945Z,11.88
2023-03-27T16:31:31.926Z,11.85
2023-03-27T16:33:59.150Z,11.78
2023-03-27T16:36:30.142Z,11.75
2023-03-27T16:38:57.052Z,11.70
2023-03-27T16:41:23.950Z,11.54
2023-03-27T16:43:50.803Z,11.67
2023-03-27T16:46:24.918Z,11.63
2023-03-27T16:48:52.004Z,11.63
2023-03-27T16:51:20.120Z,11.60
2023-03-27T16:53:46.933Z,11.54
2023-03-27T16:56:13.861Z,11.50
2023-03-27T16:58:40.769Z,11.43
2023-03-27T17:01:08.779Z,11.41
2023-03-27T17:03:38.350Z,11.34
2023-03-27T17:06:08.097Z,11.29
2023-03-27T17:08:36.789Z,11.22
2023-03-27T17:11:08.564Z,11.15
2023-03-27T17:13:36.814Z,11.15
2023-03-27T17:16:05.484Z,11.04
2023-03-27T17:18:32.581Z,11.03
2023-03-27T17:20:59.645Z,10.97
2023-03-27T17:23:26.488Z,10.89
2023-03-27T17:25:53.212Z,10.85
2023-03-27T17:28:20.079Z,10.79
2023-03-27T17:31:01.020Z,10.76
2023-03-27T17:33:30.682Z,10.71
2023-03-27T17:35:58.026Z,10.60
2023-03-27T17:38:25.241Z,10.63
2023-03-27T17:40:52.319Z,10.53
2023-03-27T17:43:19.499Z,10.49
2023-03-27T17:45:46.217Z,10.46
2023-03-27T17:48:12.956Z,10.44
2023-03-27T17:50:41.912Z,10.37
2023-03-27T17:53:08.803Z,10.36
2023-03-27T17:55:38.639Z,10.28
2023-03-27T17:58:09.940Z,10.31
2023-03-27T18:00:39.302Z,10.30
2023-03-27T18:03:06.686Z,10.29
2023-03-27T18:05:41.005Z,10.25
2023-03-27T18:08:09.596Z,10.27
2023-03-27T18:10:37.139Z,10.23
2023-03-27T18:13:05.281Z,10.11
2023-03-27T18:15:31.995Z,10.18
2023-03-27T18:17:58.741Z,10.11
2023-03-27T18:20:25.590Z,10.13
2023-03-27T18:22:52.260Z,10.08
2023-03-27T18:25:18.900Z,10.00
2023-03-27T18:27:46.105Z,10.01
2023-03-27T18:30:15.663Z,9.97
2023-03-27T18:32:44.557Z,9.92
2023-03-27T18:35:16.395Z,9.87
2023-03-27T18:37:45.016Z,9.84
2023-03-27T18:40:15.429Z,9.83
2023-03-27T18:42:46.110Z,9.71
2023-03-27T18:45:15.400Z,9.73
2023-03-27T18:47:43.494Z,9.77
2023-03-27T18:50:12.702Z,9.75
2023-03-27T18:52:39.879Z,9.63
2023-03-27T18:55:08.544Z,9.72
2023-03-27T18:57:36.490Z,9.67
2023-03-27T19:00:06.721Z,9.64
2023-03-27T19:02:35.572Z,9.57
2023-03-27T19:05:04.109Z,9.60
2023-03-27T19:07:31.329Z,9.55
2023-03-27T19:09:57.998Z,9.51
2023-03-27T19:12:25.301Z,9.50
2023-03-27T19:14:52.096Z,9.48
2023-03-27T19:17:19.989Z,9.53
2023-03-27T19:19:46.917Z,9.50
2023-03-27T19:22:13.758Z,9.44
2023-03-27T19:24:41.298Z,9.48
2023-03-27T19:27:23.717Z,9.43
2023-03-27T19:29:51.904Z,9.41
2023-03-27T19:32:18.688Z,9.29
2023-03-27T19:34:46.038Z,9.35
2023-03-27T19:37:12.988Z,9.27
2023-03-27T19:39:39.848Z,9.19
2023-03-27T19:42:06.467Z,9.11
2023-03-27T19:44:33.478Z,9.03
2023-03-27T19:47:02.799Z,8.98
2023-03-27T19:49:29.482Z,8.96
2023-03-27T19:51:56.298Z,8.93
2023-03-27T19:54:23.330Z,8.94
2023-03-27T19:56:50.129Z,8.92
2023-03-27T19:59:29.836Z,8.90
2023-03-27T20:01:57.890Z,8.85
2023-03-27T20:04:26.136Z,8.90
2023-03-27T20:06:53.889Z,8.87
2023-03-27T20:09:21.070Z,8.81
2023-03-27T20:11:47.871Z,8.83
2023-03-27T20:14:14.619Z,8.81
2023-03-27T20:16:41.243Z,8.78
2023-03-27T20:19:09.402Z,8.78
2023-03-27T20:21:39.037Z,8.75
2023-03-27T20:24:10.146Z,8.78
2023-03-27T20:26:41.515Z,8.76
2023-03-27T20:29:11.308Z,8.82
2023-03-27T20:31:39.027Z,8.82
2023-03-27T20:34:06.916Z,8.82
2023-03-27T20:36:35.058Z,8.71
2023-03-27T20:39:04.746Z,8.85
2023-03-27T20:41:31.375Z,8.77
2023-03-27T20:43:58.987Z,8.84
2023-03-27T20:46:30.539Z,8.81
2023-03-27T20:48:57.648Z,8.75
2023-03-27T20:51:25.046Z,8.73
2023-03-27T20:53:56.131Z,8.71
2023-03-27T20:56:23.316Z,8.69
2023-03-27T20:58:51.981Z,8.54
2023-03-27T21:01:27.959Z,8.58
2023-03-27T21:03:58.680Z,8.52
2023-03-27T21:06:26.260Z,8.55
2023-03-27T21:08:52.893Z,8.53
2023-03-27T21:11:19.695Z,8.49
2023-03-27T21:13:46.662Z,8.45
2023-03-27T21:16:13.349Z,8.46
2023-03-27T21:18:40.503Z,8.52
2023-03-27T21:21:07.661Z,8.53
2023-03-27T21:23:35.391Z,8.45
2023-03-27T21:26:02.324Z,8.47
2023-03-27T21:28:29.192Z,8.46
2023-03-27T21:30:56.432Z,8.43
2023-03-27T21:33:23.279Z,8.40
2023-03-27T21:35:51.755Z,8.36
2023-03-27T21:38:19.051Z,8.36
2023-03-27T21:40:47.434Z,8.31
2023-03-27T21:43:14.760Z,8.18
2023-03-27T21:45:41.483Z,8.22
2023-03-27T21:48:10.791Z,8.16
2023-03-27T21:50:37.862Z,8.14
2023-03-27T21:53:04.477Z,8.13
2023-03-27T21:55:31.336Z,7.96
2023-03-27T21:57:58.028Z,7.99
2023-03-27T22:00:24.807Z,7.91
2023-03-27T22:02:52.064Z,7.88
2023-03-27T22:05:19.295Z,7.87
2023-03-27T22:07:46.755Z,7.67
2023-03-27T22:10:21.082Z,7.70
2023-03-27T22:12:47.703Z,7.69
2023-03-27T22:15:14.492Z,7.62
2023-03-27T22:17:41.309Z,7.46
2023-03-27T22:20:08.532Z,7.21
2023-03-27T22:22:35.876Z,7.01
2023-03-27T22:25:02.739Z,6.81
2023-03-27T22:27:29.846Z,6.60
2023-03-27T22:29:56.792Z,6.28
2023-03-27T22:32:23.736Z,6.07
2023-03-27T22:34:50.431Z,5.84
2023-03-27T22:37:17.457Z,5.57
2023-03-27T22:39:44.537Z,5.27
2023-03-27T22:42:11.372Z,5.12
2023-03-27T22:44:38.181Z,5.06
2023-03-27T22:47:04.980Z,4.95
2023-03-27T22:49:31.658Z,4.88
2023-03-27T22:51:58.453Z,4.66
2023-03-27T22:54:26.218Z,4.55
2023-03-27T22:56:55.278Z,4.51
2023-03-27T22:59:22.334Z,4.46
2023-03-27T23:01:49.132Z,4.35
2023-03-27T23:04:15.819Z,4.24
2023-03-27T23:06:42.554Z,4.18
2023-03-27T23:09:10.194Z,4.06
2023-03-27T23:11:37.021Z,3.92
2023-03-27T23:14:04.027Z,3.75
2023-03-27T23:16:30.901Z,3.63
2023-03-27T23:18:57.580Z,3.54
2023-03-27T23:21:24.701Z,3.49
2023-03-27T23:23:51.497Z,3.37
2023-03-27T23:26:18.285Z,3.21
2023-03-27T23:28:45.720Z,3.05
2023-03-27T23:31:15.791Z,3.00
2023-03-27T23:33:45.191Z,2.98
2023-03-27T23:36:18.121Z,2.93
2023-03-27T23:38:45.280Z,2.86
2023-03-27T23:41:14.145Z,2.77
2023-03-27T23:43:41.569Z,2.72
2023-03-27T23:46:10.472Z,2.65
2023-03-27T23:48:39.186Z,2.56
2023-03-27T23:51:07.197Z,2.50
2023-03-27T23:53:35.198Z,2.40
2023-03-27T23:56:02.142Z,2.40
2023-03-27T23:58:32.678Z,2.35
